Flight Track Log - Related Links

Times and Time Zones

All times are in EDT time to prevent confusion due to time zone crossing. See the TRS882 flight status page for this flight to view local times or setup timezone preferences in your user account.

Time Position Orientation Groundspeed Altitude Reporting Facility
EDT Latitude Longitude Course Direction KTS MPH feet Rate Location/Type
Fri 06:30:25 PM 33.6667 -84.5000 287° West 205 236 3,100  Level Atlanta TRACON
Fri 06:31:25 PM 33.6833 -84.5667 287° West 250 288 4,600 2,000 Climbing Atlanta TRACON
Fri 06:32:25 PM 33.7667 -84.5833 351° North 261 300 7,100 2,092 Climbing Atlanta TRACON
Fri 06:33:57 PM 33.8767 -84.5817 North 284 327 9,900 1,500 Climbing Atlanta Center
Fri 06:34:57 PM 33.9558 -84.6047 346° North 289 333 10,900 1,450 Climbing Atlanta Center
Fri 06:35:57 PM 34.0475 -84.6381 343° North 322 371 12,800 2,100 Climbing Atlanta Center
Fri 06:36:57 PM 34.1494 -84.6764 343° North 360 414 15,100 2,050 Climbing Atlanta Center
Fri 06:37:57 PM 34.2411 -84.7097 343° North 373 429 16,900 1,950 Climbing Atlanta Center
Fri 06:38:57 PM 34.3453 -84.7533 341° North 392 451 19,000 1,950 Climbing Atlanta Center
Fri 06:39:57 PM 34.4492 -84.8147 334° Northwest 410 472 20,800 1,600 Climbing Atlanta Center
Fri 06:40:57 PM 34.5217 -84.9186 310° West 400 460 22,200 1,750 Climbing Atlanta Center
Fri 06:41:57 PM 34.6000 -85.0256 312° West 410 472 24,300 1,850 Climbing Atlanta Center
Fri 06:42:57 PM 34.6722 -85.1222 312° West 410 472 25,900 1,450 Climbing Atlanta Center
Fri 06:43:57 PM 34.7508 -85.2219 314° West 403 464 27,200 1,050 Climbing Atlanta Center
Fri 06:44:57 PM 34.8269 -85.3217 313° West 403 464 28,000 750 Climbing Atlanta Center
Fri 06:45:57 PM 34.9072 -85.4242 314° West 403 464 28,700 800 Climbing Atlanta Center
Fri 06:46:57 PM 34.9894 -85.5294 314° West 414 476 29,600 896 Climbing Atlanta Center
Fri 06:49:38 PM 35.2303 -85.8019 317° Northwest 425 489 32,000 652 Climbing Memphis Center
Fri 06:50:38 PM 35.3275 -85.8958 322° Northwest 430 495 32,000  Level Memphis Center
Fri 06:51:38 PM 35.4225 -85.9850 323° Northwest 435 501 32,000  Level Memphis Center
Fri 06:52:38 PM 35.5156 -86.0794 320° Northwest 435 501 32,000  Level Memphis Center
Fri 06:53:38 PM 35.5758 -86.2014 301° West 423 487 32,000  Level Memphis Center
Fri 06:54:38 PM 35.5950 -86.3408 280° West 397 457 32,000  Level Memphis Center
Fri 06:55:38 PM 35.6144 -86.4856 279° West 421 484 32,000  Level Memphis Center
Fri 06:56:38 PM 35.6350 -86.6150 281° West 433 498 32,000  Level Memphis Center
Fri 06:57:38 PM 35.6539 -86.7597 279° West 439 505 32,000  Level Memphis Center
Fri 06:58:38 PM 35.6747 -86.9094 280° West 444 511 32,000  Level Memphis Center
Fri 06:59:38 PM 35.6975 -87.0517 281° West 444 511 32,000  Level Memphis Center
Fri 07:00:38 PM 35.7139 -87.1994 278° West 444 511 32,000  Level Memphis Center
Fri 07:01:38 PM 35.7386 -87.3569 281° West 444 511 32,000  Level Memphis Center
Fri 07:02:38 PM 35.7567 -87.5047 279° West 444 511 32,000  Level Memphis Center
Fri 07:03:38 PM 35.7767 -87.6497 280° West 439 505 32,000  Level Memphis Center
Fri 07:04:38 PM 35.7964 -87.7950 280° West 439 505 32,000  Level Memphis Center
Fri 07:05:38 PM 35.8161 -87.9456 279° West 446 513 32,000 -700 Level Memphis Center
Fri 07:06:38 PM 35.8356 -88.0933 279° West 446 513 30,600 -1,300 Descending Memphis Center
Fri 07:07:38 PM 35.8358 -88.2342 270° West 434 499 29,400 -1,200 Descending Memphis Center
Fri 07:08:38 PM 35.7986 -88.3658 251° West 429 494 28,200 -1,450 Descending Memphis Center
Fri 07:09:38 PM 35.7569 -88.5153 251° West 442 509 26,500 -1,600 Descending Memphis Center
Fri 07:10:38 PM 35.7111 -88.6669 250° West 461 531 25,000 -1,750 Descending Memphis Center
Fri 07:11:38 PM 35.6694 -88.8186 251° West 473 544 23,000 -1,550 Descending Memphis Center
Fri 07:12:38 PM 35.6272 -88.9625 250° West 467 537 21,900 -2,650 Descending Memphis Center
Fri 07:13:38 PM 35.5831 -89.1139 250° West 456 525 17,700 -3,500 Descending Memphis Center
Fri 07:14:38 PM 35.5467 -89.2419 251° West 416 479 14,900 -2,500 Descending Memphis Center
Fri 07:15:38 PM 35.5061 -89.3597 247° West 398 458 12,700 -1,900 Descending Memphis Center
Fri 07:16:38 PM 35.4294 -89.4447 222° Southwest 370 426 11,100 -2,250 Descending Memphis Center
Fri 07:17:38 PM 35.3569 -89.5017 213° Southwest 338 389 8,200 -2,300 Descending Memphis Center
Fri 07:18:38 PM 35.2842 -89.5583 212° Southwest 321 369 6,500 -1,700 Descending Memphis Center
Fri 07:19:38 PM 35.2136 -89.6097 211° Southwest 310 357 4,800 -1,550 Descending Memphis Center
Fri 07:20:38 PM 35.1472 -89.6614 212° Southwest 299 344 3,400 -1,000 Descending Memphis Center
Fri 07:21:38 PM 35.0850 -89.7100 213° Southwest 279 321 2,800 -750 Descending Memphis Center
Fri 07:22:38 PM 35.0539 -89.7736 239° Southwest 236 272 1,900 -450 Descending Memphis Center
Fri 07:23:38 PM 35.0583 -89.8447 274° West 209 241 1,900 -400 Level Memphis Center
Fri 07:24:38 PM 35.0586 -89.9056 270° West 193 222 1,100 -700 Descending Memphis Center
Fri 07:25:38 PM 35.0589 -89.9486 270° West 168 193 500 -600 Descending Memphis Center

Login

Don't have an account? Register now (free) for customized features, flight alerts, and more!